Huvudsida
METAR-TAF:

METAR-TAF

Flygplatser :

Hammerfests, Norge

Hammerfests flygplats

latitud: 70-40N, longitud: 023-40E, höjd: 8 m

Aktuellt väderrapport

Denna rapport gjordes för 26 minuter sedan, klockan 10:20 UTC
Vind 9 kt varierande vindriktning i byarna ända upp till 20 kt
Temperatur -4°C
Fuktighet 63%
Tryck 998 hPa
Sikt 10 km eller mer
Inga moln under 1 500 m eller inga cumulonimbus

METAR: ENHF 171020Z VRB09G20KT CAVOK M04/M10 Q0998 RMK WIND 1254FT 20026KT

Tid: 11:46 (10:46 UTC)

Väderprognos

Denna rapport gjordes för 2 timmar och 46 minuter sedan, klockan 08:00 UTC
Prognos gäller från 17 kl. 09 UTC till 17 kl. 18 UTC
Vind 15 kt från syd i byarna ända upp till 25 kt
Sikt 10 km eller mer
Inga moln under 1 500 m eller inga cumulonimbus
Temporärt
från 17 kl. 09 UTC till 17 kl. 18 UTC
Vind 25 kt från syd i byarna ända upp till 35 kt

TAF: ENHF 170800Z 1709/1718 19015G25KT CAVOK TEMPO 1709/1718 19025G35KT

Aktuella väderrapporter och prognoser från 4000 flygplatser (METAR- och TAF-rapporter).

De tillgängliga stationerna syns som gula och röda prickar på kartan.

För musen över prickarna för att se namnen på stationerna.

Klicka sedan för att få väderrapporter och prognoser.

För att ändra kartan: Klicka på de gröna knapparna med ett svart kors på för att zooma in; den gröna knappen med ett streck på för att zooma ut; eller på de gröna pilarna för angränsande kartor.


METAR-TAF: